Time;durP1;ratioP1;P1;durP2;ratioP2;P2;SDS_P1;SDS_P2;PMS_P1;PMS_P2;Temp;Humidity;BMP_temperature;BMP_pressure;BME280_temperature;BME280_humidity;BME280_pressure;Samples;Min_cycle;Max_cycle;Signal;HPM_P1;HPM_P2
2021/09/25 00:01:25;;;;;;;19.33;5.38;;;17.50;99.90;;;;;;5104065;28;20046;-78
2021/09/25 00:03:51;;;;;;;22.35;5.95;;;17.10;99.90;;;;;;5105497;28;20034;-78
2021/09/25 00:06:17;;;;;;;17.38;5.57;;;17.40;99.90;;;;;;5104143;28;20044;-78
2021/09/25 00:08:43;;;;;;;21.95;6.03;;;17.40;99.90;;;;;;5095853;28;20038;-78
2021/09/25 00:11:09;;;;;;;16.48;5.32;;;17.40;99.90;;;;;;5090705;28;20164;-78
2021/09/25 00:13:38;;;;;;;21.58;5.63;;;17.40;99.90;;;;;;5071128;28;20031;-78
2021/09/25 00:16:07;;;;;;;28.00;5.78;;;17.40;99.90;;;;;;5099606;28;20035;-78
2021/09/25 00:18:35;;;;;;;24.40;6.75;;;17.40;99.90;;;;;;5077960;28;20035;-78
2021/09/25 00:21:01;;;;;;;20.52;6.07;;;17.40;99.90;;;;;;5125210;28;20047;-78
2021/09/25 00:23:27;;;;;;;17.73;5.47;;;17.40;99.90;;;;;;5100924;28;20405;-78
2021/09/25 00:25:53;;;;;;;21.40;5.90;;;17.40;99.90;;;;;;5125635;28;20031;-78
2021/09/25 00:28:18;;;;;;;25.45;6.10;;;17.40;99.90;;;;;;5095868;28;20028;-78
2021/09/25 00:30:47;;;;;;;18.40;6.20;;;17.40;99.90;;;;;;5094760;28;20040;-78
2021/09/25 00:33:13;;;;;;;23.17;6.32;;;17.40;99.90;;;;;;5094417;28;20066;-78
2021/09/25 00:35:41;;;;;;;26.83;7.35;;;17.40;99.90;;;;;;5094737;28;20044;-78
2021/09/25 00:38:07;;;;;;;20.55;6.82;;;17.40;99.90;;;;;;5078050;28;20050;-78
2021/09/25 00:40:33;;;;;;;19.05;5.72;;;17.40;99.90;;;;;;5094522;28;20405;-78
2021/09/25 00:42:58;;;;;;;28.48;6.55;;;17.40;99.90;;;;;;5096452;28;20043;-78
2021/09/25 00:45:26;;;;;;;26.25;7.05;;;17.40;99.90;;;;;;5094543;28;20111;-78
2021/09/25 00:47:52;;;;;;;21.85;6.78;;;17.40;99.90;;;;;;5112880;28;20404;-78
2021/09/25 00:50:18;;;;;;;19.88;6.50;;;17.40;99.90;;;;;;5077915;28;20177;-78
2021/09/25 00:52:45;;;;;;;25.40;6.53;;;17.40;99.90;;;;;;5091015;28;20056;-78
2021/09/25 00:55:12;;;;;;;21.38;6.45;;;17.40;99.90;;;;;;5087740;28;20035;-78
2021/09/25 00:57:38;;;;;;;23.08;7.03;;;17.40;99.90;;;;;;5103401;28;20086;-78
2021/09/25 01:00:06;;;;;;;23.73;6.82;;;17.40;99.90;;;;;;5090909;28;20044;-78
2021/09/25 01:02:35;;;;;;;29.15;7.15;;;17.40;99.90;;;;;;5076690;28;20079;-78
2021/09/25 01:05:01;;;;;;;22.67;6.22;;;17.40;99.90;;;;;;5100538;28;20498;-78
2021/09/25 01:07:27;;;;;;;20.77;6.13;;;17.40;99.90;;;;;;5074713;28;20119;-78
2021/09/25 01:09:54;;;;;;;21.60;6.47;;;17.40;99.90;;;;;;5089651;28;20075;-78
2021/09/25 01:12:20;;;;;;;29.13;6.93;;;17.40;99.90;;;;;;5094644;28;20118;-78
2021/09/25 01:14:46;;;;;;;24.58;6.68;;;17.40;99.90;;;;;;5103466;28;20107;-78
2021/09/25 01:17:13;;;;;;;24.40;6.55;;;17.50;99.90;;;;;;5074366;28;20503;-78
2021/09/25 01:19:40;;;;;;;25.75;7.90;;;17.50;99.90;;;;;;5094458;28;20116;-78
2021/09/25 01:22:06;;;;;;;26.67;7.22;;;17.40;99.90;;;;;;5093934;28;20051;-78
2021/09/25 01:24:33;;;;;;;25.38;6.75;;;17.40;99.90;;;;;;5077450;28;20123;-78
2021/09/25 01:26:59;;;;;;;18.80;6.35;;;17.40;99.90;;;;;;5114802;28;20063;-78
2021/09/25 01:29:26;;;;;;;29.92;7.35;;;17.50;99.90;;;;;;5114537;28;20484;-76
2021/09/25 01:31:53;;;;;;;27.17;6.60;;;17.50;99.90;;;;;;5108557;28;20038;-76
2021/09/25 01:34:19;;;;;;;26.67;7.13;;;17.50;99.90;;;;;;5095310;28;20044;-76
2021/09/25 01:36:48;;;;;;;23.33;7.22;;;17.40;99.90;;;;;;5086322;28;20085;-76
2021/09/25 01:39:14;;;;;;;17.23;6.70;;;17.50;99.90;;;;;;5094981;28;20484;-76
2021/09/25 01:41:40;;;;;;;23.60;7.50;;;17.40;99.90;;;;;;5097339;28;20044;-76
2021/09/25 01:44:06;;;;;;;24.48;6.90;;;17.50;99.90;;;;;;5088546;28;20040;-76
2021/09/25 01:46:31;;;;;;;24.42;7.38;;;17.40;99.90;;;;;;5093306;28;20047;-76
2021/09/25 01:48:57;;;;;;;25.20;6.93;;;17.50;99.90;;;;;;5101289;28;20071;-76
2021/09/25 01:51:23;;;;;;;22.30;6.82;;;17.40;99.90;;;;;;5105528;28;20074;-76
2021/09/25 01:53:48;;;;;;;31.58;7.10;;;17.50;99.90;;;;;;5077427;28;20048;-76
2021/09/25 01:56:15;;;;;;;24.10;7.28;;;17.40;99.90;;;;;;5094809;28;20070;-75
2021/09/25 01:58:42;;;;;;;22.73;7.72;;;17.40;99.90;;;;;;5103080;28;20032;-75
2021/09/25 02:01:10;;;;;;;37.17;8.55;;;17.40;99.90;;;;;;5114089;28;20040;-78
2021/09/25 02:03:39;;;;;;;24.35;7.38;;;17.40;99.90;;;;;;5097140;28;20043;-78
2021/09/25 02:06:07;;;;;;;27.52;6.85;;;17.40;99.90;;;;;;5106770;28;20028;-78
2021/09/25 02:08:34;;;;;;;26.25;6.70;;;17.50;99.90;;;;;;5085127;28;20035;-77
2021/09/25 02:11:00;;;;;;;28.60;6.47;;;17.40;99.90;;;;;;5115065;28;20105;-76
2021/09/25 02:13:27;;;;;;;28.30;7.28;;;17.50;99.90;;;;;;5077344;28;20083;-75
2021/09/25 02:15:55;;;;;;;22.77;6.68;;;17.50;99.90;;;;;;5094396;28;20032;-75
2021/09/25 02:18:21;;;;;;;20.50;7.15;;;17.50;99.90;;;;;;5076326;28;20036;-75
2021/09/25 02:20:47;;;;;;;30.10;7.20;;;17.50;99.90;;;;;;5085462;28;20039;-76
2021/09/25 02:23:12;;;;;;;29.10;7.07;;;17.50;99.90;;;;;;5100311;28;20043;-76
2021/09/25 02:25:39;;;;;;;25.77;7.50;;;17.50;99.90;;;;;;5110167;28;20035;-76
2021/09/25 02:28:05;;;;;;;25.63;7.35;;;17.50;99.90;;;;;;5099529;28;20044;-75
2021/09/25 02:30:31;;;;;;;23.27;6.78;;;17.50;99.90;;;;;;5075927;28;20036;-76
2021/09/25 02:32:56;;;;;;;24.77;7.30;;;17.50;99.90;;;;;;5104453;28;20374;-76
2021/09/25 02:35:23;;;;;;;27.83;7.32;;;17.50;99.90;;;;;;5107066;28;20113;-75
2021/09/25 02:37:50;;;;;;;24.05;7.18;;;17.50;99.90;;;;;;5101730;28;20061;-76
2021/09/25 02:40:17;;;;;;;28.20;7.38;;;17.50;99.90;;;;;;5080770;28;20040;-75
2021/09/25 02:42:44;;;;;;;21.27;6.72;;;17.50;99.90;;;;;;5101213;28;20451;-75
2021/09/25 02:45:11;;;;;;;26.27;6.90;;;17.50;99.90;;;;;;5100628;28;20040;-75
2021/09/25 02:47:39;;;;;;;26.13;7.10;;;17.50;99.90;;;;;;5108112;28;20036;-76
2021/09/25 02:50:07;;;;;;;27.48;7.47;;;17.50;99.90;;;;;;5102131;28;20126;-76
2021/09/25 02:52:33;;;;;;;23.38;7.20;;;17.50;99.90;;;;;;5103239;27;20114;-76
2021/09/25 02:54:58;;;;;;;30.85;6.88;;;17.50;99.90;;;;;;5105545;28;20123;-76
2021/09/25 02:57:24;;;;;;;21.40;6.68;;;17.50;99.90;;;;;;5095734;28;20038;-76
2021/09/25 02:59:50;;;;;;;26.15;7.07;;;17.50;99.90;;;;;;5078670;28;20038;-76
2021/09/25 03:02:16;;;;;;;22.33;6.70;;;17.50;99.90;;;;;;5114039;28;20035;-76
2021/09/25 03:04:41;;;;;;;27.08;6.80;;;17.50;99.90;;;;;;5093955;28;20061;-76
2021/09/25 03:07:08;;;;;;;25.40;6.68;;;17.50;99.90;;;;;;5090041;27;20057;-76
2021/09/25 03:09:34;;;;;;;27.35;7.60;;;17.50;99.90;;;;;;5112815;28;20035;-76
2021/09/25 03:12:00;;;;;;;27.13;7.63;;;17.50;99.90;;;;;;5104991;27;20079;-76
2021/09/25 03:14:26;;;;;;;25.38;7.32;;;17.40;99.90;;;;;;5119795;27;20488;-76
2021/09/25 03:16:52;;;;;;;21.27;6.75;;;17.50;99.90;;;;;;5108117;28;20428;-76
2021/09/25 03:19:18;;;;;;;23.08;6.93;;;17.50;99.90;;;;;;5109563;27;20035;-76
2021/09/25 03:21:44;;;;;;;22.23;7.20;;;17.50;99.90;;;;;;5119502;27;20035;-76
2021/09/25 03:24:12;;;;;;;25.30;6.72;;;17.50;99.90;;;;;;5086303;28;20480;-76
2021/09/25 03:26:38;;;;;;;22.83;6.82;;;17.50;99.90;;;;;;5099417;27;20118;-76
2021/09/25 03:29:04;;;;;;;21.30;7.10;;;17.50;99.90;;;;;;5078376;28;20119;-76
2021/09/25 03:31:30;;;;;;;25.67;7.10;;;17.50;99.90;;;;;;5109578;28;20056;-76
2021/09/25 03:33:57;;;;;;;24.85;7.32;;;17.40;99.90;;;;;;5078354;28;20035;-76
2021/09/25 03:36:22;;;;;;;23.58;7.70;;;17.50;99.90;;;;;;5078337;27;20115;-76
2021/09/25 03:38:48;;;;;;;25.58;7.68;;;17.50;99.90;;;;;;5114402;27;20123;-76
2021/09/25 03:41:14;;;;;;;27.15;6.78;;;17.50;99.90;;;;;;5101372;28;20114;-76
2021/09/25 03:43:40;;;;;;;32.65;7.20;;;17.50;99.90;;;;;;5109142;28;20180;-76
2021/09/25 03:46:06;;;;;;;25.02;7.32;;;17.50;99.90;;;;;;5095231;28;20040;-76
2021/09/25 03:48:32;;;;;;;25.30;7.30;;;17.50;99.90;;;;;;5109463;28;20039;-77
2021/09/25 03:50:58;;;;;;;24.88;7.53;;;17.50;99.90;;;;;;5078291;28;20601;-77
2021/09/25 03:53:24;;;;;;;31.98;7.43;;;17.50;99.90;;;;;;5112916;28;20458;-77
2021/09/25 03:55:50;;;;;;;23.67;7.43;;;17.50;99.90;;;;;;5127221;27;20366;-77
2021/09/25 03:58:16;;;;;;;23.45;7.88;;;17.50;99.90;;;;;;5126496;27;20050;-77
2021/09/25 04:00:42;;;;;;;25.00;7.18;;;17.50;99.90;;;;;;5100944;27;20062;-77
2021/09/25 04:03:12;;;;;;;18.30;6.85;;;17.50;99.90;;;;;;5104665;28;20070;-77
2021/09/25 04:05:39;;;;;;;26.20;7.35;;;17.50;99.90;;;;;;5093402;28;20043;-77
2021/09/25 04:08:06;;;;;;;25.80;7.35;;;17.50;99.90;;;;;;5109845;28;20057;-77
2021/09/25 04:10:31;;;;;;;23.60;7.43;;;17.50;99.90;;;;;;5106353;28;20408;-77
2021/09/25 04:12:57;;;;;;;28.20;8.02;;;17.50;99.90;;;;;;5101362;28;20042;-76
2021/09/25 04:15:23;;;;;;;32.95;7.70;;;17.50;99.90;;;;;;5124199;28;20493;-76
2021/09/25 04:17:52;;;;;;;25.08;7.60;;;17.50;99.90;;;;;;5108417;28;20061;-76
2021/09/25 04:20:18;;;;;;;34.70;8.30;;;17.50;99.90;;;;;;5125509;28;20040;-75
2021/09/25 04:22:44;;;;;;;31.63;7.70;;;17.40;99.90;;;;;;5126685;28;20043;-76
2021/09/25 04:25:10;;;;;;;25.45;8.38;;;17.40;99.90;;;;;;5061273;28;20122;-76
2021/09/25 04:27:36;;;;;;;26.08;7.68;;;17.40;99.90;;;;;;5125886;28;20035;-77
2021/09/25 04:30:02;;;;;;;38.15;8.48;;;17.40;99.90;;;;;;5118555;28;20042;-78
2021/09/25 04:32:28;;;;;;;29.00;8.75;;;17.40;99.90;;;;;;5096584;28;20046;-78
2021/09/25 04:34:54;;;;;;;25.42;9.13;;;17.40;99.90;;;;;;5131521;28;20043;-77
2021/09/25 04:37:20;;;;;;;25.33;8.25;;;17.40;99.90;;;;;;5120938;28;20203;-76
2021/09/25 04:39:46;;;;;;;29.75;8.35;;;17.40;99.90;;;;;;5118764;28;20036;-76
2021/09/25 04:42:13;;;;;;;27.30;8.40;;;17.30;99.90;;;;;;5108517;28;20039;-76
2021/09/25 04:44:39;;;;;;;28.55;7.75;;;17.30;99.90;;;;;;5077516;28;20043;-76
2021/09/25 04:47:05;;;;;;;27.27;8.23;;;17.30;99.90;;;;;;5099161;28;20042;-75
2021/09/25 04:49:30;;;;;;;27.20;8.40;;;17.30;99.90;;;;;;5122848;28;20067;-75
2021/09/25 04:51:56;;;;;;;22.75;7.18;;;17.30;99.90;;;;;;5111035;27;20039;-76
2021/09/25 04:54:22;;;;;;;29.08;8.05;;;17.30;99.90;;;;;;5085768;28;20531;-75
2021/09/25 04:56:57;;;;;;;32.97;8.50;;;17.30;99.90;;;;;;5105175;28;20073;-76
2021/09/25 04:59:23;;;;;;;30.30;8.82;;;17.30;99.90;;;;;;5085375;28;20566;-76
2021/09/25 05:01:54;;;;;;;27.00;8.05;;;17.30;99.90;;;;;;5114947;28;20063;-76
2021/09/25 05:04:22;;;;;;;31.42;7.60;;;17.30;99.90;;;;;;5094690;28;20097;-76
2021/09/25 05:06:54;;;;;;;26.55;8.43;;;17.30;99.90;;;;;;5077738;28;20088;-76
2021/09/25 05:09:28;;;;;;;26.70;7.57;;;17.30;99.90;;;;;;5093196;28;20392;-76
2021/09/25 05:11:54;;;;;;;27.05;8.50;;;17.30;99.90;;;;;;5103260;28;20039;-76
2021/09/25 05:14:20;;;;;;;32.65;9.43;;;17.30;99.90;;;;;;5100315;28;20116;-75
2021/09/25 05:16:45;;;;;;;25.30;8.77;;;17.30;99.90;;;;;;5108131;28;20039;-76
2021/09/25 05:19:11;;;;;;;32.80;8.80;;;17.30;99.90;;;;;;5079334;28;20054;-76
2021/09/25 05:21:37;;;;;;;23.58;8.32;;;17.30;99.90;;;;;;5097861;28;20028;-75
2021/09/25 05:24:03;;;;;;;24.70;8.82;;;17.30;99.90;;;;;;5104748;28;20485;-75
2021/09/25 05:26:29;;;;;;;29.20;8.45;;;17.20;99.90;;;;;;5101219;28;20043;-75
2021/09/25 05:28:55;;;;;;;31.02;8.65;;;17.20;99.90;;;;;;5106339;28;20036;-75
2021/09/25 05:31:20;;;;;;;31.25;9.02;;;17.20;99.90;;;;;;5095654;28;20044;-75
2021/09/25 05:33:46;;;;;;;23.15;8.52;;;17.20;99.90;;;;;;5096057;28;20046;-75
2021/09/25 05:36:12;;;;;;;26.15;9.45;;;17.20;99.90;;;;;;5101351;28;20119;-75
2021/09/25 05:38:38;;;;;;;37.83;9.50;;;17.20;99.90;;;;;;5107833;28;20451;-75
2021/09/25 05:41:03;;;;;;;27.60;9.23;;;17.20;99.90;;;;;;5104797;28;20404;-76
2021/09/25 05:43:29;;;;;;;30.98;9.07;;;17.20;99.90;;;;;;5097113;28;20059;-76
2021/09/25 05:45:58;;;;;;;27.90;9.98;;;17.20;99.90;;;;;;5065171;28;20115;-76
2021/09/25 05:48:25;;;;;;;30.17;9.02;;;17.20;99.90;;;;;;5094740;28;20444;-76
2021/09/25 05:50:54;;;;;;;34.70;10.20;;;17.20;99.90;;;;;;5095070;28;20127;-76
2021/09/25 05:53:20;;;;;;;24.88;9.65;;;17.20;99.90;;;;;;5093624;28;20063;-76
2021/09/25 05:55:45;;;;;;;28.20;10.00;;;17.20;99.90;;;;;;5114542;28;20393;-75
2021/09/25 05:58:11;;;;;;;28.40;9.15;;;17.20;99.90;;;;;;5101756;28;20048;-76
2021/09/25 06:00:37;;;;;;;34.78;11.05;;;17.20;99.90;;;;;;5098414;28;20088;-75
2021/09/25 06:03:03;;;;;;;25.42;9.32;;;17.30;99.90;;;;;;5102819;28;20077;-75
2021/09/25 06:05:37;;;;;;;28.60;10.25;;;17.30;99.90;;;;;;5107595;28;20078;-75
2021/09/25 06:08:03;;;;;;;29.08;9.60;;;17.20;99.90;;;;;;5081931;28;20046;-76
2021/09/25 06:10:30;;;;;;;32.25;10.32;;;17.30;99.90;;;;;;5075070;28;20043;-75
2021/09/25 06:12:56;;;;;;;35.47;10.50;;;17.30;99.90;;;;;;5096028;28;20040;-75
2021/09/25 06:15:22;;;;;;;26.25;11.55;;;17.30;99.90;;;;;;5104138;28;20123;-76
2021/09/25 06:17:48;;;;;;;24.95;10.48;;;17.30;99.90;;;;;;5080137;28;20075;-76
2021/09/25 06:20:14;;;;;;;27.58;10.82;;;17.30;99.90;;;;;;5100246;28;20480;-76
2021/09/25 06:22:41;;;;;;;28.13;11.82;;;17.30;99.90;;;;;;5109660;28;20036;-75
2021/09/25 06:25:08;;;;;;;28.23;10.82;;;17.30;99.90;;;;;;5076711;28;20141;-76
2021/09/25 06:27:34;;;;;;;28.70;10.90;;;17.30;99.90;;;;;;5092923;28;20040;-75
2021/09/25 06:30:00;;;;;;;32.67;11.63;;;17.30;99.90;;;;;;5108479;28;20449;-75
2021/09/25 06:32:25;;;;;;;34.72;10.73;;;17.40;99.90;;;;;;5092721;28;20040;-75
2021/09/25 06:34:52;;;;;;;30.83;11.57;;;17.40;99.90;;;;;;5094403;28;20118;-75
2021/09/25 06:37:18;;;;;;;29.80;11.60;;;17.40;99.90;;;;;;5100451;28;20070;-75
2021/09/25 06:39:44;;;;;;;30.73;10.85;;;17.40;99.90;;;;;;5111021;28;20043;-76
2021/09/25 06:42:09;;;;;;;27.13;10.82;;;17.40;99.90;;;;;;5098257;28;20090;-76
2021/09/25 06:44:35;;;;;;;29.67;10.90;;;17.50;99.90;;;;;;5101187;28;20390;-76
2021/09/25 06:47:01;;;;;;;25.52;11.38;;;17.40;99.90;;;;;;5107819;28;20040;-76
2021/09/25 06:49:27;;;;;;;28.45;11.05;;;17.40;99.90;;;;;;5075621;28;20040;-76
2021/09/25 06:51:52;;;;;;;37.25;12.02;;;17.50;99.90;;;;;;5097562;28;20036;-75
2021/09/25 06:54:18;;;;;;;29.90;11.60;;;17.50;99.90;;;;;;5091884;28;20054;-76
2021/09/25 06:56:44;;;;;;;31.05;11.35;;;17.50;99.90;;;;;;5075577;28;20043;-76
2021/09/25 06:59:10;;;;;;;37.78;11.57;;;17.60;99.90;;;;;;5095674;28;20032;-75
2021/09/25 07:01:36;;;;;;;33.17;12.30;;;17.60;99.90;;;;;;5058556;28;20077;-75
2021/09/25 07:04:01;;;;;;;33.83;11.50;;;17.60;99.90;;;;;;5092889;28;20100;-77
2021/09/25 07:06:27;;;;;;;35.38;11.63;;;17.60;99.90;;;;;;5102348;28;20036;-77
2021/09/25 07:08:53;;;;;;;27.40;11.15;;;17.60;99.90;;;;;;5098499;28;20046;-78
2021/09/25 07:11:21;;;;;;;36.35;11.40;;;17.60;99.90;;;;;;5079126;28;20401;-78
2021/09/25 07:13:47;;;;;;;33.53;11.82;;;17.60;99.90;;;;;;5102142;28;20044;-76
2021/09/25 07:16:12;;;;;;;29.80;11.68;;;17.60;99.90;;;;;;5097820;28;20465;-76
2021/09/25 07:18:39;;;;;;;30.65;11.20;;;17.70;99.90;;;;;;5095092;28;20100;-76
2021/09/25 07:21:06;;;;;;;27.60;12.02;;;17.70;99.90;;;;;;5064349;28;20097;-77
2021/09/25 07:23:33;;;;;;;24.45;10.52;;;17.70;99.90;;;;;;5101818;28;20044;-77
2021/09/25 07:25:59;;;;;;;26.77;11.10;;;17.80;99.90;;;;;;5104866;28;20366;-77
2021/09/25 07:28:25;;;;;;;31.83;12.52;;;17.80;99.90;;;;;;5089590;28;20039;-77
2021/09/25 07:30:51;;;;;;;27.67;11.32;;;17.80;99.90;;;;;;5091673;28;20040;-77
2021/09/25 07:33:17;;;;;;;37.53;11.32;;;17.80;99.90;;;;;;5095557;28;20433;-76
2021/09/25 07:35:44;;;;;;;24.80;11.10;;;17.90;99.90;;;;;;5101906;28;20397;-76
2021/09/25 07:38:10;;;;;;;26.30;12.10;;;17.90;99.90;;;;;;5110775;28;20050;-77
2021/09/25 07:40:36;;;;;;;25.98;11.15;;;17.90;99.90;;;;;;5075390;28;20403;-77
2021/09/25 07:43:04;;;;;;;29.30;10.95;;;18.00;99.90;;;;;;5105550;28;20040;-77
2021/09/25 07:45:30;;;;;;;24.00;10.57;;;18.00;99.90;;;;;;5106857;28;20068;-77
2021/09/25 07:47:57;;;;;;;26.17;10.73;;;18.10;99.90;;;;;;5076462;28;20044;-77
2021/09/25 07:50:26;;;;;;;28.08;9.88;;;18.20;99.90;;;;;;5095991;28;20385;-76
2021/09/25 07:52:55;;;;;;;29.67;10.23;;;18.20;99.90;;;;;;5106971;28;20126;-77
2021/09/25 07:55:36;;;;;;;;;;;18.20;99.90;;;;;;5154379;27;20385;-77
2021/09/25 07:58:02;;;;;;;24.30;9.60;;;18.30;99.90;;;;;;5113884;27;19915;-77
2021/09/25 08:00:28;;;;;;;22.73;9.60;;;18.30;99.90;;;;;;5151311;27;20039;-77
2021/09/25 08:02:54;;;;;;;27.27;9.68;;;18.40;99.90;;;;;;5147144;27;20037;-77
2021/09/25 08:05:19;;;;;;;28.77;9.27;;;18.40;99.90;;;;;;5127122;27;20544;-77
2021/09/25 08:07:46;;;;;;;21.67;9.18;;;18.50;99.90;;;;;;5132495;27;20046;-77
2021/09/25 08:10:14;;;;;;;23.25;9.23;;;18.50;99.90;;;;;;5127408;27;20092;-77
2021/09/25 08:12:40;;;;;;;21.70;9.18;;;18.50;99.90;;;;;;5132587;27;20038;-77
2021/09/25 08:15:08;;;;;;;20.10;8.48;;;18.50;99.90;;;;;;5128290;27;20050;-77
2021/09/25 08:17:34;;;;;;;21.35;8.65;;;18.50;99.90;;;;;;5124580;27;20031;-77
2021/09/25 08:19:59;;;;;;;21.45;8.45;;;18.50;99.90;;;;;;5125380;27;20491;-77
2021/09/25 08:22:25;;;;;;;25.02;8.35;;;18.50;99.90;;;;;;5111539;27;20034;-77
2021/09/25 08:24:51;;;;;;;21.98;8.10;;;18.50;99.90;;;;;;5114931;27;20066;-77
2021/09/25 08:27:17;;;;;;;21.65;7.82;;;18.50;99.90;;;;;;5113967;27;20042;-77
2021/09/25 08:29:43;;;;;;;26.17;8.10;;;18.50;99.90;;;;;;5115386;27;20049;-77
2021/09/25 08:32:09;;;;;;;19.27;7.00;;;18.50;99.90;;;;;;5115340;27;20035;-77
2021/09/25 08:34:35;;;;;;;21.23;7.15;;;18.50;99.90;;;;;;5115325;27;20041;-77
2021/09/25 08:37:01;;;;;;;17.25;7.03;;;18.60;99.90;;;;;;5132478;27;20118;-77
2021/09/25 08:39:26;;;;;;;21.70;7.57;;;18.60;99.90;;;;;;5115456;27;20031;-77
2021/09/25 08:41:56;;;;;;;21.77;7.95;;;18.60;99.90;;;;;;5126263;27;20508;-77
2021/09/25 08:44:21;;;;;;;19.50;7.82;;;18.60;99.90;;;;;;5126269;27;20038;-77
2021/09/25 08:46:48;;;;;;;19.10;7.35;;;18.60;99.90;;;;;;5131852;27;20406;-77
2021/09/25 08:49:13;;;;;;;21.30;7.78;;;18.60;99.90;;;;;;5150683;27;20031;-77
2021/09/25 08:51:39;;;;;;;17.58;7.15;;;18.60;99.90;;;;;;5097737;27;20454;-77
2021/09/25 08:54:05;;;;;;;19.92;7.30;;;18.70;99.90;;;;;;5114074;27;20039;-77
2021/09/25 08:56:31;;;;;;;21.05;7.55;;;18.70;99.90;;;;;;5130261;27;20047;-77
2021/09/25 08:58:58;;;;;;;19.48;7.65;;;18.70;99.90;;;;;;5113415;27;20035;-77
2021/09/25 09:01:26;;;;;;;20.08;7.32;;;18.70;99.90;;;;;;5130136;27;20070;-77
2021/09/25 09:03:53;;;;;;;16.45;7.40;;;18.70;99.90;;;;;;5128011;27;20045;-77
2021/09/25 09:06:25;;;;;;;23.08;8.13;;;18.80;99.90;;;;;;5121600;27;20122;-77
2021/09/25 09:08:53;;;;;;;16.88;7.32;;;18.80;99.90;;;;;;5100892;27;20047;-77
2021/09/25 09:11:21;;;;;;;16.25;7.13;;;18.80;99.90;;;;;;5113225;27;20497;-77
2021/09/25 09:13:58;;;;;;;16.85;7.25;;;18.80;99.90;;;;;;5117767;27;20490;-77
2021/09/25 09:16:26;;;;;;;21.63;7.22;;;18.90;99.90;;;;;;5116474;27;20081;-77
2021/09/25 09:18:52;;;;;;;17.75;7.28;;;18.90;99.90;;;;;;5136215;27;20102;-77
2021/09/25 09:21:31;;;;;;;19.42;8.70;;;18.90;99.90;;;;;;5100637;27;20043;-77
2021/09/25 09:23:59;;;;;;;18.48;7.75;;;18.90;99.90;;;;;;5117551;27;20039;-77
2021/09/25 09:26:30;;;;;;;16.33;8.10;;;18.90;99.90;;;;;;5117657;27;20043;-77
2021/09/25 09:28:58;;;;;;;19.13;8.40;;;19.00;99.90;;;;;;5100892;27;20062;-77
2021/09/25 09:31:26;;;;;;;17.48;8.05;;;19.00;99.90;;;;;;5065780;27;20046;-78
2021/09/25 09:33:58;;;;;;;26.67;9.25;;;19.00;99.90;;;;;;5112942;28;20035;-78
2021/09/25 09:36:36;;;;;;;21.55;8.43;;;19.00;99.90;;;;;;5110974;27;20099;-78
2021/09/25 09:39:10;;;;;;;19.52;8.27;;;19.10;99.90;;;;;;5123251;27;20035;-79
2021/09/25 09:41:44;;;;;;;19.45;8.40;;;19.10;99.90;;;;;;5100174;27;20070;-79
2021/09/25 09:44:17;;;;;;;22.90;8.35;;;19.20;99.90;;;;;;5117498;27;20043;-79
2021/09/25 09:46:46;;;;;;;20.85;7.55;;;19.20;99.90;;;;;;5132808;27;20091;-79
2021/09/25 09:49:20;;;;;;;16.42;7.70;;;19.20;99.90;;;;;;5112158;28;20173;-79
2021/09/25 09:51:54;;;;;;;20.65;8.00;;;19.30;99.90;;;;;;5111488;27;20050;-79
2021/09/25 09:54:25;;;;;;;15.45;7.03;;;19.20;99.90;;;;;;5113310;28;20051;-78
2021/09/25 09:56:57;;;;;;;13.35;7.35;;;19.20;99.90;;;;;;5113589;28;20048;-78
2021/09/25 09:59:24;;;;;;;17.52;6.90;;;19.30;99.90;;;;;;5113676;28;20035;-78
2021/09/25 10:01:50;;;;;;;22.25;7.38;;;19.30;99.90;;;;;;5096487;28;20065;-78
2021/09/25 10:04:17;;;;;;;13.93;7.03;;;19.30;99.90;;;;;;5112788;28;20069;-78
2021/09/25 10:06:43;;;;;;;20.45;8.20;;;19.40;99.90;;;;;;5114661;28;20044;-78
2021/09/25 10:09:18;;;;;;;11.93;6.97;;;19.40;99.90;;;;;;5079931;28;20259;-78
2021/09/25 10:11:47;;;;;;;21.40;7.65;;;19.40;99.90;;;;;;5101617;28;20039;-78
2021/09/25 10:14:19;;;;;;;14.55;7.63;;;19.50;99.90;;;;;;5106778;28;20523;-78
2021/09/25 10:16:45;;;;;;;21.15;7.47;;;19.50;99.90;;;;;;5112915;28;20035;-79
2021/09/25 10:19:12;;;;;;;15.23;6.20;;;19.50;99.90;;;;;;5113029;28;20043;-79
2021/09/25 10:21:39;;;;;;;12.82;6.85;;;19.60;99.90;;;;;;5113111;28;20067;-79
2021/09/25 10:24:13;;;;;;;17.25;6.97;;;19.60;99.90;;;;;;5096099;28;20046;-79
2021/09/25 10:26:44;;;;;;;15.15;6.00;;;19.60;99.90;;;;;;5110814;28;20071;-79
2021/09/25 10:29:16;;;;;;;13.82;6.05;;;19.60;99.90;;;;;;5096739;28;20039;-79
2021/09/25 10:31:42;;;;;;;13.77;5.75;;;19.70;99.90;;;;;;5113082;28;20421;-78
2021/09/25 10:34:12;;;;;;;14.98;6.70;;;19.70;99.90;;;;;;5091964;28;20108;-78
2021/09/25 10:36:39;;;;;;;16.40;7.03;;;19.80;99.90;;;;;;5112694;28;20043;-78
2021/09/25 10:39:36;;;;;;;15.45;7.25;;;19.80;99.90;;;;;;5113239;28;20035;-78
2021/09/25 10:42:12;;;;;;;18.75;6.15;;;19.90;99.90;;;;;;5091486;28;20036;-78
2021/09/25 10:44:50;;;;;;;17.30;6.82;;;19.90;99.90;;;;;;5111584;28;20039;-78
2021/09/25 10:47:20;;;;;;;14.57;6.60;;;20.00;99.90;;;;;;5112424;28;20039;-78
2021/09/25 10:49:50;;;;;;;15.30;6.35;;;20.00;99.90;;;;;;5112775;28;20086;-78
2021/09/25 10:52:23;;;;;;;18.45;7.35;;;20.00;99.90;;;;;;5112604;28;20444;-78
2021/09/25 10:55:25;;;;;;;24.00;8.75;;;20.00;99.90;;;;;;5094893;28;20060;-78
2021/09/25 10:58:12;;;;;;;19.95;8.40;;;20.00;99.90;;;;;;5101015;28;20032;-78
2021/09/25 11:00:56;;;;;;;18.50;8.25;;;20.00;99.90;;;;;;5100462;28;20391;-78
2021/09/25 11:06:07;;;;;;;28.88;10.40;;;20.10;99.90;;;;;;5098512;28;20042;-78
2021/09/25 11:08:34;;;;;;;18.75;9.43;;;20.10;99.90;;;;;;5095388;28;20509;-78
2021/09/25 11:11:05;;;;;;;21.33;10.20;;;20.10;99.90;;;;;;5112412;28;20399;-78
2021/09/25 11:14:03;;;;;;;23.75;10.63;;;20.20;99.90;;;;;;5112015;28;20039;-78
2021/09/25 11:16:47;;;;;;;24.83;10.23;;;20.20;99.90;;;;;;5111967;28;20059;-78
2021/09/25 11:19:22;;;;;;;18.35;9.77;;;20.20;99.90;;;;;;5095114;28;20139;-78
2021/09/25 11:22:03;;;;;;;22.80;9.25;;;20.30;99.90;;;;;;5111962;28;20035;-78
2021/09/25 11:24:35;;;;;;;16.50;7.75;;;20.30;99.90;;;;;;5095315;28;20100;-77
2021/09/25 11:27:05;;;;;;;16.70;8.70;;;20.30;99.90;;;;;;5112282;28;20442;-78
2021/09/25 11:29:31;;;;;;;18.13;9.25;;;20.30;99.90;;;;;;5111886;28;20043;-77
2021/09/25 11:32:06;;;;;;;17.48;8.23;;;20.30;99.90;;;;;;5110790;28;20055;-78
2021/09/25 11:34:33;;;;;;;17.60;7.68;;;20.30;99.90;;;;;;5108505;28;20036;-78
2021/09/25 11:37:01;;;;;;;15.07;8.23;;;20.30;99.90;;;;;;5111785;28;20039;-78
2021/09/25 11:40:00;;;;;;;16.20;7.88;;;20.30;99.90;;;;;;5109530;28;20040;-78
2021/09/25 11:42:28;;;;;;;19.67;8.48;;;20.30;99.90;;;;;;5018252;28;20569;-79
2021/09/25 11:44:55;;;;;;;19.17;7.03;;;20.20;99.90;;;;;;5102261;28;20051;-79
2021/09/25 11:47:37;;;;;;;19.35;7.30;;;20.20;99.90;;;;;;5095039;28;20086;-78
2021/09/25 11:50:25;;;;;;;16.67;7.00;;;20.20;99.90;;;;;;5111647;28;20075;-77
2021/09/25 11:53:00;;;;;;;15.90;7.00;;;20.10;99.90;;;;;;5112251;28;20051;-77
2021/09/25 11:55:27;;;;;;;18.13;6.63;;;20.10;99.90;;;;;;5111458;28;21776;-77
2021/09/25 11:58:17;;;;;;;17.70;8.18;;;20.00;99.90;;;;;;5111735;28;20505;-77
2021/09/25 12:00:48;;;;;;;15.50;6.70;;;20.00;99.90;;;;;;5094611;28;20115;-77
2021/09/25 12:03:16;;;;;;;20.67;7.00;;;20.00;99.90;;;;;;5106013;28;20046;-77
2021/09/25 12:05:47;;;;;;;17.23;7.00;;;19.90;99.90;;;;;;5094722;28;20036;-77
2021/09/25 12:08:27;;;;;;;16.75;7.00;;;19.90;99.90;;;;;;5112328;28;20039;-77
2021/09/25 12:11:13;;;;;;;18.63;8.23;;;19.80;99.90;;;;;;5112982;28;20038;-76
2021/09/25 12:13:41;;;;;;;21.45;7.43;;;19.80;99.90;;;;;;5111779;28;20085;-77
2021/09/25 12:16:17;;;;;;;15.90;7.70;;;19.70;99.90;;;;;;5110238;28;20410;-77
2021/09/25 12:18:47;;;;;;;17.52;8.02;;;19.70;99.90;;;;;;5109317;28;20035;-77
2021/09/25 12:21:24;;;;;;;16.17;8.00;;;19.60;99.90;;;;;;5111488;28;20044;-78
2021/09/25 12:24:03;;;;;;;16.00;6.80;;;19.60;99.90;;;;;;5111014;28;20051;-77
2021/09/25 12:26:32;;;;;;;14.25;7.05;;;19.60;99.90;;;;;;5107826;28;20093;-77
2021/09/25 12:29:12;;;;;;;12.82;6.20;;;19.60;99.90;;;;;;5112787;28;20039;-77
2021/09/25 12:31:39;;;;;;;18.90;7.88;;;19.60;99.90;;;;;;5111775;28;20040;-76
2021/09/25 12:34:12;;;;;;;19.15;6.85;;;19.50;99.90;;;;;;5107671;28;20101;-77
2021/09/25 12:36:40;;;;;;;19.90;7.18;;;19.50;99.90;;;;;;5104560;28;20036;-77
2021/09/25 12:39:14;;;;;;;19.15;7.25;;;19.50;99.90;;;;;;5088109;28;20051;-77
2021/09/25 12:41:49;;;;;;;18.77;7.65;;;19.50;99.90;;;;;;5109153;28;20035;-76
2021/09/25 12:44:17;;;;;;;18.25;8.50;;;19.50;99.90;;;;;;5115442;28;20432;-77